Vremea acum in Galati - Romania

Vrei sa afli care e starea vremii acum in Galati - Romania? Dorim sa iti furnizam starea vremii pentru Galati - Romania. Starea vremii Galati - Romania pentru astazi.

Vremea acum in Galati

Temperatura: -1.2 °C

Se simte ca: -3.9 °C
Innorat: 22 %
Precipitatii: 0 %
Presiune atmosferica: 1019 hPa
Umiditate: 89%
Vizibilitate: 20 km
Vantul bate din SW cu 7.6 km/h

Evolutia vremii in Galati pe ore

Ora: 04:00
Parțial noros
Temperatura: -1.7°C
Sansa de precipitatii: 0%
Ora Descriere Temp Se simte Precipitatii Umiditate Vant
00:00Parțial noros-1°-4.1°0%91%WSW 8.6 KM/H
01:00Parțial noros-1.2°-3.9°0%89%SW 7.6 KM/H
02:00Parțial noros-1.4°-3.8°0%88%SW 6.5 KM/H
03:00Parțial noros-1.5°-4.2°0%87%SW 7.2 KM/H
04:00Parțial noros-1.7°-4.7°0%87%SW 7.9 KM/H
05:00Parțial noros-1.8°-5.1°0%86%SW 8.6 KM/H
06:00Parțial noros-1.9°-5.2°0%85%SW 9 KM/H
07:00Parțial noros-1.9°-5.4°0%83%SW 9 KM/H
08:00Parțial noros-2°-5.5°0%82%SW 9.4 KM/H
09:00Parțial noros-0.5°-3.8°0%72%SW 9.7 KM/H
10:00Parțial noros-2.1°0%62%SW 10.1 KM/H
11:00Parțial noros2.5°-0.4°0%52%SW 10.4 KM/H
12:00Parțial noros3.1°0.2°0%49%SW 10.8 KM/H
13:00Parțial noros3.6°0.8°0%47%SW 11.2 KM/H
14:00Parțial noros4.2°1.4°0%44%SW 11.5 KM/H
15:00Parțial noros3.1°0%49%SW 11.5 KM/H
16:00Parțial noros1.9°-1.4°0%54%SW 11.9 KM/H
17:00Parțial noros0.8°-2.8°0%59%SSW 11.9 KM/H
18:00Parțial noros0.4°-3°0%64%SW 10.8 KM/H
19:00Parțial noros-0.1°-3.3°0%68%SW 9.7 KM/H
20:00Parțial noros-0.5°-3.5°0%72%SW 8.6 KM/H
21:00Parțial noros-0.6°-2.6°0%71%WSW 6.5 KM/H
22:00Parțial noros-0.7°-1.7°0%70%W 4.3 KM/H
23:00Parțial noros-0.8°-0.8°0%69%WNW 2.2 KM/H